METAR Data
IDs: Format: Raw Decoded Include TAF

Data at: 0913 UTC 07 Dec 2021

KTPF 070715Z AUTO 00000KT 1/4SM FG BKN003 BKN012 OVC019 20/20 A3008 RMK AO2
KTPF 070655Z AUTO 00000KT 1/4SM FG BKN008 OVC020 19/19 A3008 RMK AO2
KTPF 070635Z AUTO 00000KT 1/4SM FG BKN008 OVC020 20/20 A3008 RMK AO2
KTPF 070615Z AUTO 00000KT M1/4SM FG BKN008 OVC016 20/20 A3008 RMK AO2
KTPF 070555Z AUTO 00000KT M1/4SM FG BKN012 OVC018 20/20 A3008 RMK AO2
KTPF 070535Z AUTO 00000KT M1/4SM FG BKN014 OVC018 20/20 A3008 RMK AO2
KTPF 070515Z AUTO 00000KT 1/4SM FG OVC020 20/20 A3009 RMK AO2
KTPF 070455Z AUTO 00000KT 1/4SM FG BKN009 OVC020 20/20 A3011 RMK AO2
KTPF 070435Z AUTO 00000KT 1/4SM FG BKN002 BKN009 OVC020 20/20 A3011 RMK AO2
KTPF 070415Z AUTO 00000KT 1SM BR OVC002 20/20 A3012 RMK AO2
KTPF 070355Z AUTO 00000KT 4SM BR OVC004 20/20 A3012 RMK AO2
KTPF 070335Z AUTO 00000KT 7SM BKN004 OVC110 20/20 A3012 RMK AO2
KTPF 070315Z AUTO 00000KT 10SM SCT004 BKN110 20/20 A3012 RMK AO2
KTPF 070255Z AUTO 00000KT 1SM BR SCT004 BKN110 20/20 A3012 RMK AO2 VIS 1/4V5
KTPF 070235Z AUTO 00000KT 10SM BKN110 20/20 A3012 RMK AO2
KTPF 070215Z AUTO 00000KT 10SM SCT110 20/20 A3012 RMK AO2
KTPF 070155Z AUTO 00000KT 10SM SCT120 20/20 A3012 RMK AO2
KTPF 070135Z AUTO 00000KT 10SM CLR 20/20 A3012 RMK AO2
KTPF 070115Z AUTO 00000KT 10SM CLR 21/21 A3011 RMK AO2
KTPF 070055Z AUTO 00000KT 10SM SCT110 21/20 A3011 RMK AO2
KTPF 070035Z AUTO 00000KT 10SM SCT110 22/19 A3011 RMK AO2
KTPF 070015Z AUTO 00000KT 10SM CLR 22/19 A3011 RMK AO2
KTPF 062355Z AUTO 00000KT 10SM CLR 22/19 A3010 RMK AO2
KTPF 062335Z AUTO 00000KT 10SM CLR 22/19 A3009 RMK AO2
KTPF 062315Z AUTO 00000KT 10SM CLR 22/18 A3008 RMK AO2
KTPF 062255Z AUTO 00000KT 10SM CLR 23/18 A3007 RMK AO2
KTPF 062235Z AUTO 27004KT 10SM CLR 23/18 A3007 RMK AO2
KTPF 062215Z AUTO 29003KT 10SM CLR 24/18 A3006 RMK AO2
KTPF 062155Z AUTO 00000KT 10SM CLR 24/18 A3006 RMK AO2
KTPF 062135Z AUTO 23003KT 10SM CLR 24/19 A3006 RMK AO2
KTPF 062115Z AUTO 10SM CLR 25/19 A3006 RMK AO2
KTPF 062055Z AUTO 23005KT 10SM CLR 25/19 A3006 RMK AO2
KTPF 062035Z AUTO 23005KT 10SM CLR 25/19 A3006 RMK AO2
KTPF 062015Z AUTO 22007KT 10SM CLR 26/20 A3006 RMK AO2
KTPF 061955Z AUTO 20006KT 10SM CLR 26/20 A3006 RMK AO2
KTPF 061935Z AUTO 21007KT 10SM CLR 27/20 A3006 RMK AO2
KTPF 061915Z AUTO 21008KT 10SM CLR 27/20 A3007 RMK AO2
KTPF 061855Z AUTO 22006KT 10SM CLR 27/20 A3008 RMK AO2
KTPF 061835Z AUTO 21006KT 10SM CLR 27/20 A3008 RMK AO2
KTPF 061815Z AUTO 21004KT 10SM CLR 27/20 A3009 RMK AO2
KTPF 061755Z AUTO 19005KT 10SM CLR 27/21 A3009 RMK AO2
KTPF 061735Z AUTO 22004KT 10SM CLR 26/21 A3010 RMK AO2
KTPF 061715Z AUTO 24004KT 10SM CLR 25/21 A3011 RMK AO2
KTPF 061655Z AUTO 24004KT 10SM SCT110 25/21 A3012 RMK AO2
KTPF 061635Z AUTO 23003KT 7SM SCT002 SCT019 SCT035 23/22 A3013 RMK AO2
KTPF 061615Z AUTO 00000KT 1/4SM FG OVC002 22/22 A3014 RMK AO2
KTPF 061555Z AUTO 00000KT 1/2SM FG OVC002 21/21 A3015 RMK AO2
KTPF 061535Z AUTO 21004KT 1/4SM FG OVC002 21/21 A3016 RMK AO2
KTPF 061515Z AUTO 00000KT 1/4SM FG OVC002 21/21 A3016 RMK AO2
KTPF 061455Z AUTO 18004KT 1/2SM FG OVC002 20/20 A3016 RMK AO2
KTPF 061435Z AUTO 18003KT 3/4SM BR OVC002 20/20 A3016 RMK AO2
KTPF 061415Z AUTO 18004KT 1/2SM FG OVC002 20/20 A3016 RMK AO2
KTPF 061355Z AUTO 00000KT 1/4SM FG OVC002 20/20 A3015 RMK AO2
KTPF 061335Z AUTO 15004KT 3/4SM BR OVC002 20/20 A3014 RMK AO2
KTPF 061315Z AUTO 00000KT 2 1/2SM BR OVC004 18/18 A3014 RMK AO2
KTPF 061255Z AUTO 00000KT 1 1/2SM BR OVC004 18/18 A3014 RMK AO2
KTPF 061235Z AUTO 00000KT 1/4SM FG OVC004 17/17 A3014 RMK AO2
KTPF 061215Z AUTO 00000KT 1/4SM FG OVC002 17/17 A3014 RMK AO2
KTPF 061155Z AUTO 00000KT 1/4SM FG OVC002 17/17 A3013 RMK AO2
KTPF 061135Z AUTO 00000KT 1/2SM FG OVC002 17/17 A3012 RMK AO2
KTPF 061115Z AUTO 09003KT 2SM BR OVC002 17/17 A3012 RMK AO2
KTPF 061055Z AUTO 00000KT 7SM SCT002 SCT110 17/17 A3011 RMK AO2
KTPF 061035Z AUTO 00000KT 10SM SCT110 17/17 A3011 RMK AO2
KTPF 061015Z AUTO 00000KT 10SM SCT110 17/17 A3011 RMK AO2
KTPF 060955Z AUTO 09003KT 10SM SCT110 17/17 A3011 RMK AO2
KTPF 060935Z AUTO 00000KT 10SM SCT120 17/17 A3012 RMK AO2
KTPF 060915Z AUTO 00000KT 10SM SCT055 SCT110 17/17 A3011 RMK AO2
KTPF 060855Z AUTO 00000KT 10SM SCT055 BKN120 18/18 A3011 RMK AO2
KTPF 060835Z AUTO 00000KT 10SM SCT055 SCT120 17/17 A3011 RMK AO2
KTPF 060815Z AUTO 08003KT 10SM SCT055 17/17 A3011 RMK AO2
KTPF 060755Z AUTO 00000KT 10SM CLR 17/17 A3011 RMK AO2
KTPF 060735Z AUTO 00000KT 10SM SCT120 17/17 A3011 RMK AO2
KTPF 060715Z AUTO 00000KT 10SM CLR 18/18 A3012 RMK AO2
KTPF 060655Z AUTO 00000KT 10SM CLR 18/18 A3013 RMK AO2
KTPF 060635Z AUTO 00000KT 10SM CLR 18/18 A3013 RMK AO2
KTPF 060615Z AUTO 00000KT 10SM CLR 18/18 A3014 RMK AO2
KTPF 060555Z AUTO 00000KT 10SM CLR 18/18 A3014 RMK AO2
KTPF 060535Z AUTO 00000KT 10SM CLR 19/19 A3014 RMK AO2
KTPF 060515Z AUTO 00000KT 10SM CLR 19/19 A3015 RMK AO2
KTPF 060455Z AUTO 00000KT 10SM SCT110 19/18 A3015 RMK AO2
KTPF 060435Z AUTO 00000KT 10SM SCT110 18/17 A3015 RMK AO2
KTPF 060415Z AUTO 08003KT 10SM CLR 18/17 A3015 RMK AO2
KTPF 060355Z AUTO 00000KT 10SM SCT110 18/16 A3016 RMK AO2
KTPF 060335Z AUTO 00000KT 10SM SCT110 19/16 A3016 RMK AO2
KTPF 060315Z AUTO 07004KT 10SM SCT120 20/16 A3015 RMK AO2
KTPF 060255Z AUTO 06005KT 10SM SCT110 20/16 A3015 RMK AO2
KTPF 060235Z AUTO 04003KT 10SM SCT038 SCT110 21/16 A3015 RMK AO2
KTPF 060215Z AUTO 04004KT 10SM SCT038 20/16 A3015 RMK AO2
KTPF 060155Z AUTO 00000KT 10SM SCT039 21/16 A3014 RMK AO2
KTPF 060135Z AUTO 04003KT 10SM BKN039 21/17 A3014 RMK AO2
KTPF 060115Z AUTO 00000KT 10SM CLR 21/16 A3013 RMK AO2
KTPF 060055Z AUTO 00000KT 10SM SCT041 21/16 A3013 RMK AO2
KTPF 060035Z AUTO 03003KT 10SM SCT045 SCT050 22/16 A3012 RMK AO2
KTPF 060015Z AUTO 00000KT 10SM SCT048 BKN050 22/16 A3011 RMK AO2
KTPF 052355Z AUTO 00000KT 10SM BKN050 BKN055 22/16 A3011 RMK AO2
KTPF 052335Z AUTO 33003KT 10SM SCT050 22/17 A3011 RMK AO2
KTPF 052315Z AUTO 00000KT 10SM SCT048 23/17 A3011 RMK AO2
KTPF 052255Z AUTO 32004KT 10SM BKN050 23/17 A3010 RMK AO2
KTPF 052235Z AUTO 29003KT 10SM SCT050 23/17 A3010 RMK AO2
KTPF 052215Z AUTO 29003KT 10SM SCT050 25/16 A3010 RMK AO2
KTPF 052155Z AUTO 00000KT 10SM CLR 25/16 A3009 RMK AO2
KTPF 052135Z AUTO 00000KT 10SM SCT050 25/16 A3009 RMK AO2
KTPF 052115Z AUTO 00000KT 10SM CLR 25/16 A3010 RMK AO2